Time;durP1;ratioP1;P1;durP2;ratioP2;P2;SDS_P1;SDS_P2;PMS_P1;PMS_P2;Temp;Humidity;BMP_temperature;BMP_pressure;BME280_temperature;BME280_humidity;BME280_pressure;Samples;Min_cycle;Max_cycle;Signal;HPM_P1;HPM_P2
2023/08/10 00:01:49;;;;;;;;;;;;;;;20.74;85.18;99724.00;5052960;28;20393;-73
2023/08/10 00:04:14;;;;;;;;;;;;;;;20.60;86.05;99730.38;5052876;28;20020;-73
2023/08/10 00:06:40;;;;;;;;;;;;;;;20.67;84.85;99728.53;5053582;28;19921;-70
2023/08/10 00:09:07;;;;;;;;;;;;;;;20.63;85.49;99727.28;5054266;28;20289;-71
2023/08/10 00:11:32;;;;;;;;;;;;;;;20.05;89.15;99723.34;5030959;28;20409;-72
2023/08/10 00:13:58;;;;;;;;;;;;;;;19.89;90.64;99721.84;5053208;28;20027;-71
2023/08/10 00:16:23;;;;;;;;;;;;;;;19.67;92.42;99728.31;5052512;28;20392;-73
2023/08/10 00:18:48;;;;;;;;;;;;;;;19.71;92.67;99726.91;5052888;28;19922;-72
2023/08/10 00:21:14;;;;;;;;;;;;;;;19.81;91.91;99727.34;5052671;28;19920;-71
2023/08/10 00:23:39;;;;;;;;;;;;;;;19.83;91.84;99728.00;5052893;28;19978;-72
2023/08/10 00:26:04;;;;;;;;;;;;;;;19.83;90.90;99730.66;5052670;28;20388;-72
2023/08/10 00:28:29;;;;;;;;;;;;;;;19.90;90.40;99731.53;5052627;28;19940;-71
2023/08/10 00:30:55;;;;;;;;;;;;;;;19.85;91.38;99727.81;5052448;28;20397;-71
2023/08/10 00:33:21;;;;;;;;;;;;;;;19.92;90.37;99723.28;5033461;28;19925;-70
2023/08/10 00:35:46;;;;;;;;;;;;;;;19.96;90.06;99733.44;5034925;28;19976;-71
2023/08/10 00:38:11;;;;;;;;;;;;;;;20.02;90.42;99729.94;5053486;28;19928;-71
2023/08/10 00:40:37;;;;;;;;;;;;;;;19.88;89.39;99732.75;5052239;28;19931;-70
2023/08/10 00:43:02;;;;;;;;;;;;;;;19.93;90.05;99733.81;5051096;28;20015;-72
2023/08/10 00:45:28;;;;;;;;;;;;;;;20.04;89.46;99741.28;5034306;28;20054;-72
2023/08/10 00:47:54;;;;;;;;;;;;;;;20.00;88.42;99737.34;5052422;28;20306;-72
2023/08/10 00:50:20;;;;;;;;;;;;;;;19.98;87.97;99739.38;5034031;28;19921;-72
2023/08/10 00:52:45;;;;;;;;;;;;;;;20.02;87.66;99746.03;5052321;28;19932;-72
2023/08/10 00:55:11;;;;;;;;;;;;;;;20.09;87.74;99750.59;5030375;28;19968;-71
2023/08/10 00:57:36;;;;;;;;;;;;;;;20.16;88.18;99746.88;5024942;28;19925;-69
2023/08/10 01:00:05;;;;;;;;;;;;;;;20.15;89.02;99755.13;5023965;28;19932;-73
2023/08/10 01:02:30;;;;;;;;;;;;;;;20.13;89.58;99758.00;5031963;28;19956;-72
2023/08/10 01:04:55;;;;;;;;;;;;;;;20.08;89.75;99760.47;5051020;28;19999;-71
2023/08/10 01:07:30;;;;;;;;;;;;;;;19.88;91.63;99749.66;5034462;28;19925;-71
2023/08/10 01:10:06;;;;;;;;;;;;;;;19.69;94.28;99755.72;5051916;28;19921;-70
2023/08/10 01:12:36;;;;;;;;;;;;;;;19.72;94.86;99744.63;5030309;28;19925;-71
2023/08/10 01:15:11;;;;;;;;;;;;;;;19.74;96.81;99747.91;5027410;28;19925;-72
2023/08/10 01:17:39;;;;;;;;;;;;;;;19.61;99.84;99755.88;5032285;28;19921;-70
2023/08/10 01:20:07;;;;;;;;;;;;;;;19.68;99.34;99748.69;5052359;28;20356;-70
2023/08/10 01:22:42;;;;;;;;;;;;;;;19.64;100.00;99752.78;5049799;28;19924;-70
2023/08/10 01:25:09;;;;;;;;;;;;;;;19.61;100.00;99747.84;5049203;28;19966;-71
2023/08/10 01:27:34;;;;;;;;;;;;;;;19.58;100.00;99750.91;5051771;28;20296;-71
2023/08/10 01:30:00;;;;;;;;;;;;;;;19.59;100.00;99747.22;5051025;28;19996;-72
2023/08/10 01:32:27;;;;;;;;;;;;;;;19.54;100.00;99753.16;5052060;28;19929;-72
2023/08/10 01:34:53;;;;;;;;;;;;;;;19.50;100.00;99756.41;5051882;28;19960;-71
2023/08/10 01:37:18;;;;;;;;;;;;;;;19.51;100.00;99755.38;5049812;28;20010;-71
2023/08/10 01:39:43;;;;;;;;;;;;;;;19.49;100.00;99754.75;5052968;28;19925;-71
2023/08/10 01:42:09;;;;;;;;;;;;;;;19.42;100.00;99753.84;5052888;28;19921;-71
2023/08/10 01:44:34;;;;;;;;;;;;;;;19.40;100.00;99755.88;5041013;28;19932;-71
2023/08/10 01:47:01;;;;;;;;;;;;;;;19.36;100.00;99754.63;5052189;28;19940;-72
2023/08/10 01:49:29;;;;;;;;;;;;;;;19.38;100.00;99768.66;5051114;28;20412;-72
2023/08/10 01:51:57;;;;;;;;;;;;;;;19.38;100.00;99765.97;5050979;28;19920;-72
2023/08/10 01:54:24;;;;;;;;;;;;;;;19.41;100.00;99762.91;5032945;28;19920;-72
2023/08/10 01:56:49;;;;;;;;;;;;;;;19.33;100.00;99761.19;5050992;28;19921;-70
2023/08/10 01:59:14;;;;;;;;;;;;;;;19.29;100.00;99769.78;5040423;28;19943;-72
2023/08/10 02:01:41;;;;;;;;;;;;;;;19.25;100.00;99773.88;5038981;28;19966;-71
2023/08/10 02:04:06;;;;;;;;;;;;;;;19.15;100.00;99775.03;5033379;28;19920;-71
2023/08/10 02:06:37;;;;;;;;;;;;;;;19.04;100.00;99772.88;5039335;28;19931;-73
2023/08/10 02:09:05;;;;;;;;;;;;;;;18.66;100.00;99776.81;5047022;28;20091;-70
2023/08/10 02:11:30;;;;;;;;;;;;;;;18.46;100.00;99778.41;5050651;28;19928;-73
2023/08/10 02:13:55;;;;;;;;;;;;;;;18.56;100.00;99768.25;5051053;28;19929;-71
2023/08/10 02:16:21;;;;;;;;;;;;;;;18.61;100.00;99773.91;5032786;28;20484;-72
2023/08/10 02:18:46;;;;;;;;;;;;;;;18.67;100.00;99773.13;5051256;28;20397;-72
2023/08/10 02:21:12;;;;;;;;;;;;;;;18.71;100.00;99769.06;5032756;28;19925;-72
2023/08/10 02:23:37;;;;;;;;;;;;;;;18.72;100.00;99776.06;5050416;28;19988;-71
2023/08/10 02:26:03;;;;;;;;;;;;;;;18.78;100.00;99767.28;5050913;28;19947;-72
2023/08/10 02:28:28;;;;;;;;;;;;;;;18.88;100.00;99773.13;5050752;28;20483;-72
2023/08/10 02:30:53;;;;;;;;;;;;;;;18.90;100.00;99770.28;5049890;28;20015;-72
2023/08/10 02:33:19;;;;;;;;;;;;;;;18.91;100.00;99772.75;5050841;28;19951;-72
2023/08/10 02:35:44;;;;;;;;;;;;;;;18.99;100.00;99774.47;5048955;28;19921;-72
2023/08/10 02:38:09;;;;;;;;;;;;;;;19.04;100.00;99772.88;5040889;28;19921;-72
2023/08/10 02:40:35;;;;;;;;;;;;;;;19.09;100.00;99775.78;5032450;28;20258;-72
2023/08/10 02:43:00;;;;;;;;;;;;;;;19.08;100.00;99782.19;5050743;28;20360;-72
2023/08/10 02:45:25;;;;;;;;;;;;;;;19.10;100.00;99772.09;5032687;28;19929;-71
2023/08/10 02:47:51;;;;;;;;;;;;;;;19.08;100.00;99779.53;5039114;28;19995;-72
2023/08/10 02:50:16;;;;;;;;;;;;;;;19.16;100.00;99774.00;5050617;28;19928;-72
2023/08/10 02:52:41;;;;;;;;;;;;;;;19.15;100.00;99774.19;5040922;28;20473;-72
2023/08/10 02:55:07;;;;;;;;;;;;;;;19.12;100.00;99770.06;5051314;28;19955;-72
2023/08/10 02:57:33;;;;;;;;;;;;;;;19.06;100.00;99776.19;5054005;28;19924;-73
2023/08/10 02:59:58;;;;;;;;;;;;;;;19.06;100.00;99773.53;5054665;28;20558;-72
2023/08/10 03:02:24;;;;;;;;;;;;;;;18.79;100.00;99782.31;5052910;28;19975;-72
2023/08/10 03:04:50;;;;;;;;;;;;;;;18.72;100.00;99778.75;5053110;28;19947;-71
2023/08/10 03:07:16;;;;;;;;;;;;;;;18.45;100.00;99777.56;5053258;28;19916;-71
2023/08/10 03:09:41;;;;;;;;;;;;;;;18.41;100.00;99782.47;5035829;28;19994;-72
2023/08/10 03:12:09;;;;;;;;;;;;;;;18.27;100.00;99791.34;5036017;28;19920;-71
2023/08/10 03:14:35;;;;;;;;;;;;;;;18.06;100.00;99785.94;5035809;28;19924;-72
2023/08/10 03:17:01;;;;;;;;;;;;;;;17.76;100.00;99787.75;5037886;28;19948;-72
2023/08/10 03:19:26;;;;;;;;;;;;;;;17.48;100.00;99789.38;5053920;28;19924;-70
2023/08/10 03:21:52;;;;;;;;;;;;;;;17.42;100.00;99785.59;5036644;28;19925;-71
2023/08/10 03:24:17;;;;;;;;;;;;;;;17.22;100.00;99784.41;5035411;28;19921;-71
2023/08/10 03:26:43;;;;;;;;;;;;;;;17.32;100.00;99782.31;5053826;28;19944;-72
2023/08/10 03:29:08;;;;;;;;;;;;;;;17.45;100.00;99790.53;5054258;28;19921;-72
2023/08/10 03:31:34;;;;;;;;;;;;;;;17.47;100.00;99793.03;5043996;28;20292;-72
2023/08/10 03:34:00;;;;;;;;;;;;;;;17.66;100.00;99794.38;5036021;28;19928;-71
2023/08/10 03:36:25;;;;;;;;;;;;;;;17.79;100.00;99791.91;5035787;28;20458;-71
2023/08/10 03:38:51;;;;;;;;;;;;;;;17.84;100.00;99794.88;5035811;28;20129;-72
2023/08/10 03:41:16;;;;;;;;;;;;;;;17.76;100.00;99790.44;5034954;28;19921;-72
2023/08/10 03:43:41;;;;;;;;;;;;;;;17.74;100.00;99796.94;5053680;28;19931;-71
2023/08/10 03:46:07;;;;;;;;;;;;;;;17.85;100.00;99797.31;5035654;28;20020;-71
2023/08/10 03:48:32;;;;;;;;;;;;;;;17.91;100.00;99801.94;5035768;28;20055;-72
2023/08/10 03:50:57;;;;;;;;;;;;;;;17.97;100.00;99805.72;5035856;28;19928;-72
2023/08/10 03:53:23;;;;;;;;;;;;;;;18.00;100.00;99800.03;5043260;28;19921;-72
2023/08/10 03:55:48;;;;;;;;;;;;;;;17.90;100.00;99805.66;5053011;28;20339;-72
2023/08/10 03:58:14;;;;;;;;;;;;;;;17.96;100.00;99804.06;5035316;28;20360;-71
2023/08/10 04:00:44;;;;;;;;;;;;;;;17.89;100.00;99809.31;5035222;28;19921;-71
2023/08/10 04:03:11;;;;;;;;;;;;;;;17.81;100.00;99811.22;5035385;28;19921;-73
2023/08/10 04:05:37;;;;;;;;;;;;;;;17.80;100.00;99809.56;5043045;28;19963;-72
2023/08/10 04:08:03;;;;;;;;;;;;;;;17.87;100.00;99805.16;5035278;28;19971;-71
2023/08/10 04:10:29;;;;;;;;;;;;;;;17.81;100.00;99812.06;5053019;28;20411;-72
2023/08/10 04:12:54;;;;;;;;;;;;;;;17.80;100.00;99815.75;5052816;28;20016;-71
2023/08/10 04:15:20;;;;;;;;;;;;;;;17.86;100.00;99816.84;5052530;28;20428;-71
2023/08/10 04:17:45;;;;;;;;;;;;;;;17.71;100.00;99816.03;5035259;28;19921;-70
2023/08/10 04:20:10;;;;;;;;;;;;;;;17.59;100.00;99812.94;5034521;28;20309;-71
2023/08/10 04:22:36;;;;;;;;;;;;;;;17.68;100.00;99816.38;5052710;28;19921;-71
2023/08/10 04:25:02;;;;;;;;;;;;;;;17.67;100.00;99812.06;5049085;28;20023;-70
2023/08/10 04:27:29;;;;;;;;;;;;;;;17.69;100.00;99816.19;5052055;28;19967;-71
2023/08/10 04:29:54;;;;;;;;;;;;;;;17.74;100.00;99815.63;5052882;28;19925;-71
2023/08/10 04:32:19;;;;;;;;;;;;;;;17.74;100.00;99826.31;5052033;28;19982;-72
2023/08/10 04:34:45;;;;;;;;;;;;;;;17.47;100.00;99817.88;5052770;28;20423;-72
2023/08/10 04:37:10;;;;;;;;;;;;;;;17.44;100.00;99826.22;5031264;28;19927;-72
2023/08/10 04:39:36;;;;;;;;;;;;;;;17.49;100.00;99829.22;5052287;28;19979;-71
2023/08/10 04:42:02;;;;;;;;;;;;;;;17.53;100.00;99827.81;5034413;28;19924;-71
2023/08/10 04:44:27;;;;;;;;;;;;;;;17.55;100.00;99833.78;5051973;28;19988;-71
2023/08/10 04:46:52;;;;;;;;;;;;;;;17.47;100.00;99833.88;5054253;28;20389;-71
2023/08/10 04:49:18;;;;;;;;;;;;;;;17.47;100.00;99836.56;5052317;28;20024;-71
2023/08/10 04:51:43;;;;;;;;;;;;;;;17.36;100.00;99839.66;5034447;28;19921;-72
2023/08/10 04:54:08;;;;;;;;;;;;;;;17.30;100.00;99829.69;5052414;28;19927;-71
2023/08/10 04:56:34;;;;;;;;;;;;;;;17.42;100.00;99830.94;5051794;28;19964;-72
2023/08/10 04:58:59;;;;;;;;;;;;;;;17.46;100.00;99840.22;5052220;28;19928;-71
2023/08/10 05:01:25;;;;;;;;;;;;;;;17.37;100.00;99838.66;5051547;28;19928;-69
2023/08/10 05:03:50;;;;;;;;;;;;;;;17.33;100.00;99841.81;5052313;28;19981;-71
2023/08/10 05:06:17;;;;;;;;;;;;;;;17.35;100.00;99843.31;5052085;28;19921;-74
2023/08/10 05:08:42;;;;;;;;;;;;;;;17.45;100.00;99833.22;5051993;28;19928;-72
2023/08/10 05:11:08;;;;;;;;;;;;;;;17.52;100.00;99836.00;5051789;28;20440;-71
2023/08/10 05:13:33;;;;;;;;;;;;;;;17.51;100.00;99831.69;5051832;28;19925;-72
2023/08/10 05:15:59;;;;;;;;;;;;;;;17.48;100.00;99846.22;5051557;28;19923;-73
2023/08/10 05:18:26;;;;;;;;;;;;;;;17.55;100.00;99851.66;5051085;28;20015;-70
2023/08/10 05:20:51;;;;;;;;;;;;;;;17.61;100.00;99853.66;5052003;28;19917;-72
2023/08/10 05:23:17;;;;;;;;;;;;;;;17.47;100.00;99857.91;5051421;28;19982;-72
2023/08/10 05:25:42;;;;;;;;;;;;;;;17.43;100.00;99861.94;5051792;28;19921;-71
2023/08/10 05:28:07;;;;;;;;;;;;;;;17.44;100.00;99852.06;5052191;28;19921;-72
2023/08/10 05:30:33;;;;;;;;;;;;;;;17.38;100.00;99864.28;5051029;28;20276;-71
2023/08/10 05:32:58;;;;;;;;;;;;;;;17.50;100.00;99862.84;5051505;28;19921;-71
2023/08/10 05:35:23;;;;;;;;;;;;;;;17.61;100.00;99860.81;5051231;28;19920;-72
2023/08/10 05:37:49;;;;;;;;;;;;;;;17.70;100.00;99863.22;5051485;28;19920;-72
2023/08/10 05:40:14;;;;;;;;;;;;;;;17.76;100.00;99872.34;5051372;28;19928;-71
2023/08/10 05:42:41;;;;;;;;;;;;;;;17.91;100.00;99886.53;5051201;28;20472;-72
2023/08/10 05:45:06;;;;;;;;;;;;;;;17.97;100.00;99891.16;5051379;28;20614;-71
2023/08/10 05:47:32;;;;;;;;;;;;;;;17.84;100.00;99890.97;5034863;28;19920;-71
2023/08/10 05:49:57;;;;;;;;;;;;;;;17.76;100.00;99899.03;5051328;28;20331;-71
2023/08/10 05:52:23;;;;;;;;;;;;;;;17.72;100.00;99895.91;5051284;28;19917;-72
2023/08/10 05:54:48;;;;;;;;;;;;;;;17.72;100.00;99893.25;5051268;28;20003;-72
2023/08/10 05:57:14;;;;;;;;;;;;;;;17.76;100.00;99893.69;5049860;28;19947;-72
2023/08/10 05:59:39;;;;;;;;;;;;;;;17.80;100.00;99895.81;5051439;28;19917;-70
2023/08/10 06:02:05;;;;;;;;;;;;;;;17.86;100.00;99894.25;5050962;28;20373;-70
2023/08/10 06:04:30;;;;;;;;;;;;;;;17.93;100.00;99889.88;5041161;28;19933;-71
2023/08/10 06:06:56;;;;;;;;;;;;;;;18.01;100.00;99884.47;5051407;28;19933;-71
2023/08/10 06:09:21;;;;;;;;;;;;;;;18.13;100.00;99891.00;5050699;28;20397;-71
2023/08/10 06:11:46;;;;;;;;;;;;;;;18.26;100.00;99888.50;5051156;28;19925;-73
2023/08/10 06:14:12;;;;;;;;;;;;;;;18.41;100.00;99899.22;5051090;28;19936;-72
2023/08/10 06:16:37;;;;;;;;;;;;;;;18.50;100.00;99897.25;5050688;28;20415;-72
2023/08/10 06:19:02;;;;;;;;;;;;;;;18.47;100.00;99902.97;5041520;28;19921;-71
2023/08/10 06:21:28;;;;;;;;;;;;;;;18.57;100.00;99915.06;5050780;28;19931;-71
2023/08/10 06:23:53;;;;;;;;;;;;;;;18.61;100.00;99907.53;5050548;28;19943;-71
2023/08/10 06:26:18;;;;;;;;;;;;;;;18.63;100.00;99908.97;5050667;28;19966;-72
2023/08/10 06:28:44;;;;;;;;;;;;;;;18.66;100.00;99899.78;5051138;28;19970;-71
2023/08/10 06:31:09;;;;;;;;;;;;;;;18.72;100.00;99901.72;5053794;28;19920;-70
2023/08/10 06:33:35;;;;;;;;;;;;;;;18.78;100.00;99899.13;5054303;28;19927;-72
2023/08/10 06:36:00;;;;;;;;;;;;;;;18.90;100.00;99894.13;5055288;28;19921;-72
2023/08/10 06:38:26;;;;;;;;;;;;;;;19.04;100.00;99901.25;5054407;28;19920;-72
2023/08/10 06:40:52;;;;;;;;;;;;;;;19.19;100.00;99891.34;5055225;28;19925;-70
2023/08/10 06:43:17;;;;;;;;;;;;;;;19.36;100.00;99899.13;5054314;28;19921;-71
2023/08/10 06:45:49;;;;;;;;;;;;;;;19.50;100.00;99904.44;5037030;28;20007;-72
2023/08/10 06:48:14;;;;;;;;;;;;;;;19.67;100.00;99905.03;5054254;28;20055;-72
2023/08/10 06:50:40;;;;;;;;;;;;;;;19.81;100.00;99909.44;5054721;28;19928;-71
2023/08/10 06:53:07;;;;;;;;;;;;;;;19.95;100.00;99911.22;5035638;28;19921;-72
2023/08/10 06:55:32;;;;;;;;;;;;;;;20.06;100.00;99911.69;5050419;28;19970;-72
2023/08/10 06:57:59;;;;;;;;;;;;;;;20.16;100.00;99904.13;5044824;28;20007;-73
2023/08/10 07:00:25;;;;;;;;;;;;;;;20.27;100.00;99908.94;5054491;28;20346;-70
2023/08/10 07:02:53;;;;;;;;;;;;;;;20.37;100.00;99914.84;5054431;28;19947;-70
2023/08/10 07:05:19;;;;;;;;;;;;;;;20.42;100.00;99923.09;5054281;28;19921;-72
2023/08/10 07:07:45;;;;;;;;;;;;;;;20.46;100.00;99935.09;5054222;28;19921;-72
2023/08/10 07:10:11;;;;;;;;;;;;;;;20.57;100.00;99936.38;5054857;28;20015;-75
2023/08/10 07:12:36;;;;;;;;;;;;;;;20.66;100.00;99940.56;5041411;28;19936;-72
2023/08/10 07:15:01;;;;;;;;;;;;;;;20.69;100.00;99946.34;5054384;28;19978;-72
2023/08/10 07:17:27;;;;;;;;;;;;;;;20.76;100.00;99941.03;5054065;28;20405;-73
2023/08/10 07:19:52;;;;;;;;;;;;;;;20.83;100.00;99932.00;5054384;28;20347;-72
2023/08/10 07:22:17;;;;;;;;;;;;;;;20.94;100.00;99937.78;5053911;28;20028;-72
2023/08/10 07:24:43;;;;;;;;;;;;;;;21.02;100.00;99934.94;5054066;28;19921;-73
2023/08/10 07:27:08;;;;;;;;;;;;;;;21.08;100.00;99934.16;5054024;28;19971;-72
2023/08/10 07:29:33;;;;;;;;;;;;;;;21.14;100.00;99922.59;5053801;28;20322;-71
2023/08/10 07:32:00;;;;;;;;;;;;;;;21.20;100.00;99933.41;5054109;28;19921;-72
2023/08/10 07:34:27;;;;;;;;;;;;;;;21.28;100.00;99935.06;5053920;28;19967;-70
2023/08/10 07:36:53;;;;;;;;;;;;;;;21.37;100.00;99923.13;5036306;28;19929;-72
2023/08/10 07:39:18;;;;;;;;;;;;;;;21.45;100.00;99924.75;5053524;28;19927;-72
2023/08/10 07:41:43;;;;;;;;;;;;;;;21.51;100.00;99919.41;5053144;28;19943;-73
2023/08/10 07:44:09;;;;;;;;;;;;;;;21.58;100.00;99925.63;5053829;28;19928;-71
2023/08/10 07:46:34;;;;;;;;;;;;;;;21.65;99.67;99921.09;5037184;28;20380;-72
2023/08/10 07:49:00;;;;;;;;;;;;;;;21.75;99.00;99917.16;5054001;28;19917;-71
2023/08/10 07:51:25;;;;;;;;;;;;;;;21.81;98.33;99919.00;5053447;28;19921;-72
2023/08/10 07:53:51;;;;;;;;;;;;;;;21.87;97.47;99921.69;5053426;28;19947;-70
2023/08/10 07:56:16;;;;;;;;;;;;;;;21.97;97.06;99929.41;5052979;28;19928;-71
2023/08/10 07:58:41;;;;;;;;;;;;;;;22.03;96.48;99929.38;5053648;28;19924;-71
2023/08/10 08:01:07;;;;;;;;;;;;;;;22.11;95.90;99925.66;5053527;28;20292;-71
2023/08/10 08:03:33;;;;;;;;;;;;;;;22.20;95.15;99923.59;5053199;28;19931;-71
2023/08/10 08:05:58;;;;;;;;;;;;;;;22.26;94.45;99928.97;5052580;28;19931;-71
2023/08/10 08:08:23;;;;;;;;;;;;;;;22.34;94.40;99925.19;5052610;28;19920;-71
2023/08/10 08:10:48;;;;;;;;;;;;;;;22.40;93.78;99925.19;5053266;28;19927;-72
2023/08/10 08:13:14;;;;;;;;;;;;;;;22.46;93.41;99924.34;5052975;28;19920;-71
2023/08/10 08:15:39;;;;;;;;;;;;;;;22.55;92.78;99932.19;5042402;28;19921;-71
2023/08/10 08:18:23;;;;;;;;;;;;;;;22.63;92.28;99940.84;5053398;28;20300;-71
2023/08/10 08:20:48;;;;;;;;;;;;;;;22.68;94.06;99940.25;5051329;28;19920;-72
2023/08/10 08:23:14;;;;;;;;;;;;;;;22.76;94.33;99956.16;5052644;28;20442;-72
2023/08/10 08:25:39;;;;;;;;;;;;;;;22.81;93.42;99959.03;5052904;28;19943;-71
2023/08/10 08:28:04;;;;;;;;;;;;;;;22.88;92.49;99959.84;5052926;28;19921;-72
2023/08/10 08:30:30;;;;;;;;;;;;;;;22.95;92.80;99957.97;5052633;28;20444;-72
2023/08/10 08:32:55;;;;;;;;;;;;;;;23.03;92.36;99963.09;5053203;28;19927;-71
2023/08/10 08:35:20;;;;;;;;;;;;;;;23.10;92.17;99953.13;5052723;28;20353;-70
2023/08/10 08:37:46;;;;;;;;;;;;;;;23.17;91.54;99959.31;5052724;28;19978;-72
2023/08/10 08:40:11;;;;;;;;;;;;;;;23.25;91.38;99956.38;5052303;28;20579;-72
2023/08/10 08:42:37;;;;;;;;;;;;;;;23.34;90.28;99958.81;5052434;28;19925;-72
2023/08/10 08:45:03;;;;;;;;;;;;;;;23.41;88.75;99959.59;5052665;28;19925;-73
2023/08/10 08:47:28;;;;;;;;;;;;;;;23.49;88.93;99956.69;5054119;28;19920;-73
2023/08/10 08:49:54;;;;;;;;;;;;;;;23.58;87.22;99958.91;5052752;28;20427;-72
2023/08/10 08:52:20;;;;;;;;;;;;;;;23.67;86.12;99946.00;5051858;28;20373;-72
2023/08/10 08:54:45;;;;;;;;;;;;;;;23.70;86.33;99940.16;5052000;28;19924;-72
2023/08/10 08:57:11;;;;;;;;;;;;;;;23.77;83.50;99943.63;5052162;28;20415;-72
2023/08/10 08:59:37;;;;;;;;;;;;;;;23.80;84.28;99937.81;5052264;28;20412;-72
2023/08/10 09:02:02;;;;;;;;;;;;;;;23.85;84.45;99945.25;5034505;28;19931;-72
2023/08/10 09:04:28;;;;;;;;;;;;;;;23.91;83.95;99939.81;5042537;28;19928;-72
2023/08/10 09:06:53;;;;;;;;;;;;;;;23.97;82.04;99936.25;5052322;28;20007;-72
2023/08/10 09:09:18;;;;;;;;;;;;;;;24.05;79.15;99935.13;5048832;28;19921;-73
2023/08/10 09:11:44;;;;;;;;;;;;;;;24.12;78.72;99929.66;5051990;28;19956;-72
2023/08/10 09:14:09;;;;;;;;;;;;;;;24.15;77.07;99934.63;5052062;28;19974;-72
2023/08/10 09:16:37;;;;;;;;;;;;;;;24.20;76.73;99932.13;5051713;28;19973;-71
2023/08/10 09:19:03;;;;;;;;;;;;;;;24.26;73.92;99920.44;5048189;28;19936;-71
2023/08/10 09:21:32;;;;;;;;;;;;;;;24.37;71.46;99917.84;5051888;28;19921;-72
2023/08/10 09:23:57;;;;;;;;;;;;;;;24.47;69.58;99903.81;5051696;28;19928;-71
2023/08/10 09:26:23;;;;;;;;;;;;;;;24.52;69.23;99909.38;5051475;28;19927;-72
2023/08/10 09:28:49;;;;;;;;;;;;;;;24.57;68.54;99906.81;5051625;28;19927;-72
2023/08/10 09:31:21;;;;;;;;;;;;;;;24.65;67.74;99906.53;5051313;28;19921;-72
2023/08/10 09:33:51;;;;;;;;;;;;;;;24.69;63.45;99902.31;5051806;28;20020;-73
2023/08/10 09:36:21;;;;;;;;;;;;;;;24.73;62.51;99902.72;5051648;28;19920;-73
2023/08/10 09:38:50;;;;;;;;;;;;;;;24.75;62.24;99895.19;5051375;28;19929;-73
2023/08/10 09:41:15;;;;;;;;;;;;;;;24.78;62.28;99897.44;5051408;28;19920;-73
2023/08/10 09:43:44;;;;;;;;;;;;;;;24.82;63.19;99898.63;5051187;28;19921;-73
2023/08/10 09:46:10;;;;;;;;;;;;;;;24.87;63.86;99899.59;5035619;28;20389;-73
2023/08/10 09:48:37;;;;;;;;;;;;;;;24.93;63.37;99895.19;5049645;28;19982;-73
2023/08/10 09:51:06;;;;;;;;;;;;;;;24.99;63.19;99898.84;5051586;28;20555;-72
2023/08/10 09:53:32;;;;;;;;;;;;;;;25.06;61.63;99899.59;5051144;28;20787;-72
2023/08/10 09:55:58;;;;;;;;;;;;;;;25.07;62.91;99903.97;5051512;28;20486;-72
2023/08/10 09:58:23;;;;;;;;;;;;;;;25.11;62.38;99905.97;5050719;28;19961;-72
2023/08/10 10:00:49;;;;;;;;;;;;;;;25.16;62.21;99894.47;5051313;28;20371;-72
2023/08/10 10:03:17;;;;;;;;;;;;;;;25.25;60.75;99899.34;5051150;28;19920;-72
2023/08/10 10:05:43;;;;;;;;;;;;;;;25.35;60.20;99887.97;5051187;28;20377;-72
2023/08/10 10:08:09;;;;;;;;;;;;;;;25.40;60.15;99892.66;5051295;28;19921;-72
2023/08/10 10:10:38;;;;;;;;;;;;;;;25.41;59.50;99897.84;5051220;28;20288;-72
2023/08/10 10:13:07;;;;;;;;;;;;;;;25.44;60.28;99891.16;5050928;28;20377;-72
2023/08/10 10:15:35;;;;;;;;;;;;;;;25.47;61.37;99891.53;5050591;28;19982;-73
2023/08/10 10:18:00;;;;;;;;;;;;;;;25.53;62.62;99895.19;5051292;28;19936;-71
2023/08/10 10:20:26;;;;;;;;;;;;;;;25.54;63.11;99892.25;5050927;28;19939;-72
2023/08/10 10:22:51;;;;;;;;;;;;;;;25.63;63.61;99890.88;5051111;28;19921;-72
2023/08/10 10:25:18;;;;;;;;;;;;;;;25.71;63.05;99881.63;5050842;28;19920;-72
2023/08/10 10:27:48;;;;;;;;;;;;;;;25.73;63.89;99879.50;5050922;28;19925;-71
2023/08/10 10:30:15;;;;;;;;;;;;;;;25.75;63.12;99881.97;5050576;28;19925;-71
2023/08/10 10:32:48;;;;;;;;;;;;;;;25.77;62.45;99880.69;5051305;28;19956;-70
2023/08/10 10:35:23;;;;;;;;;;;;;;;25.80;61.44;99869.38;5050801;28;19943;-71
2023/08/10 10:37:56;;;;;;;;;;;;;;;25.87;61.13;99853.06;5050926;28;19920;-70
2023/08/10 10:40:23;;;;;;;;;;;;;;;25.95;60.18;99855.41;5050531;28;19921;-72
2023/08/10 10:43:00;;;;;;;;;;;;;;;26.04;59.47;99854.00;5032868;28;20391;-72
2023/08/10 10:45:25;;;;;;;;;;;;;;;26.09;59.14;99846.03;5050356;28;20365;-72
2023/08/10 10:47:51;;;;;;;;;;;;;;;26.16;57.66;99830.47;5053032;28;19939;-72
2023/08/10 10:50:20;;;;;;;;;;;;;;;26.22;57.39;99823.28;5050582;28;20397;-72
2023/08/10 10:52:51;;;;;;;;;;;;;;;26.26;56.91;99819.91;5050894;28;19946;-72
2023/08/10 10:55:16;;;;;;;;;;;;;;;26.26;57.70;99821.78;5048168;28;19921;-72
2023/08/10 10:57:43;;;;;;;;;;;;;;;26.28;57.44;99830.47;5050578;28;20004;-71
2023/08/10 11:00:09;;;;;;;;;;;;;;;26.31;56.87;99828.13;5032847;28;19921;-72
2023/08/10 11:02:35;;;;;;;;;;;;;;;26.42;56.58;99824.56;5050266;28;19928;-72
2023/08/10 11:05:00;;;;;;;;;;;;;;;26.47;56.28;99829.25;5050768;28;19935;-72
2023/08/10 11:07:25;;;;;;;;;;;;;;;26.45;56.27;99824.09;5050495;28;20258;-71
2023/08/10 11:09:51;;;;;;;;;;;;;;;26.54;53.91;99837.25;5050584;28;19967;-72
2023/08/10 11:12:17;;;;;;;;;;;;;;;26.57;53.69;99836.78;5050218;28;19921;-73
2023/08/10 11:14:42;;;;;;;;;;;;;;;26.60;53.86;99830.88;5050478;28;19951;-72
2023/08/10 11:17:08;;;;;;;;;;;;;;;26.59;54.20;99830.06;5053009;28;19927;-72
2023/08/10 11:19:34;;;;;;;;;;;;;;;26.67;53.41;99831.56;5054075;28;19925;-73
2023/08/10 11:22:00;;;;;;;;;;;;;;;26.75;52.98;99820.34;5054412;28;19921;-71
2023/08/10 11:24:28;;;;;;;;;;;;;;;26.82;52.89;99819.13;5053738;28;19925;-71
2023/08/10 11:26:53;;;;;;;;;;;;;;;26.91;51.18;99816.91;5035919;28;20426;-72
2023/08/10 11:29:20;;;;;;;;;;;;;;;26.94;51.40;99816.41;5054039;28;19921;-72
2023/08/10 11:31:46;;;;;;;;;;;;;;;27.05;51.10;99812.81;5035985;28;19921;-72
2023/08/10 11:34:21;;;;;;;;;;;;;;;27.13;50.11;99803.47;5054209;28;19956;-71
2023/08/10 11:36:47;;;;;;;;;;;;;;;27.20;49.84;99809.56;5054239;28;20207;-72
2023/08/10 11:39:12;;;;;;;;;;;;;;;27.32;50.02;99807.59;5053688;28;20071;-72
2023/08/10 11:41:41;;;;;;;;;;;;;;;27.45;48.28;99811.88;5053692;28;19985;-71
2023/08/10 11:44:07;;;;;;;;;;;;;;;27.50;47.71;99809.25;5049750;28;19921;-72
2023/08/10 11:46:32;;;;;;;;;;;;;;;27.52;47.89;99807.13;5053164;28;19932;-72
2023/08/10 11:48:58;;;;;;;;;;;;;;;27.54;48.26;99805.00;5053751;28;19999;-72
2023/08/10 11:51:31;;;;;;;;;;;;;;;27.58;47.45;99801.53;5053524;28;19921;-72
2023/08/10 11:53:56;;;;;;;;;;;;;;;27.76;45.93;99802.34;5053563;28;19935;-71
2023/08/10 11:56:22;;;;;;;;;;;;;;;27.86;46.73;99803.34;5053386;28;20032;-72
2023/08/10 11:58:48;;;;;;;;;;;;;;;27.96;45.04;99787.19;5053505;28;19921;-72
2023/08/10 12:01:16;;;;;;;;;;;;;;;28.05;45.15;99790.28;5035131;28;19924;-72
2023/08/10 12:03:47;;;;;;;;;;;;;;;28.16;45.45;99794.00;5053338;28;19956;-71
2023/08/10 12:06:15;;;;;;;;;;;;;;;28.28;45.39;99806.34;5053279;28;19931;-72
2023/08/10 12:08:40;;;;;;;;;;;;;;;28.41;44.74;99822.28;5053249;28;19921;-72
2023/08/10 12:11:06;;;;;;;;;;;;;;;28.48;43.88;99803.06;5053407;28;19920;-72
2023/08/10 12:13:33;;;;;;;;;;;;;;;28.59;43.85;99807.56;5052847;28;19921;-72
2023/08/10 12:16:02;;;;;;;;;;;;;;;28.81;43.88;99800.22;5053160;28;19921;-72
2023/08/10 12:18:27;;;;;;;;;;;;;;;29.06;43.68;99796.94;5052924;28;20389;-72
2023/08/10 12:20:53;;;;;;;;;;;;;;;29.28;43.56;99799.56;5053165;28;19966;-72
2023/08/10 12:23:20;;;;;;;;;;;;;;;29.39;41.44;99795.91;5043077;28;20003;-72
2023/08/10 12:25:46;;;;;;;;;;;;;;;29.39;40.90;99806.78;5053148;28;19964;-72
2023/08/10 12:28:12;;;;;;;;;;;;;;;29.50;40.79;99797.63;5052828;28;19928;-72
2023/08/10 12:30:38;;;;;;;;;;;;;;;29.74;40.80;99798.06;5052868;28;19928;-72
2023/08/10 12:33:03;;;;;;;;;;;;;;;29.95;39.78;99786.25;5053121;28;19960;-72
2023/08/10 12:35:28;;;;;;;;;;;;;;;30.17;38.06;99794.25;5052412;28;19925;-72